首页
METAR-TAF:

METAR-TAF

机场 :

Wick, 苏格兰

纬度: 58-27N, 经度: 003-05W, 海拔: 39米

当前天气观测

该预报发布于15分钟前的09:20 UTC
风速12节,风向东转东南
温度 12°C
湿度 76%
气压 1016 hPa
能见度10公里或以上

METAR: EGPC 190920Z AUTO 11012KT 9999 NCD 12/08 Q1016

时间: 10:35 (09:35 UTC)

预报

该预报发布于1小时和41分钟前的07:54 UTC
预报有效从19日的 09点(UTC)到 19日的 18点(UTC)
风速9节,风向东转东南
能见度10公里或以上
少量云层高于3500英尺

TAF: EGPC 190754Z 1909/1918 12009KT 9999 FEW035

超过4000个机场的气象观测和天气预报(METAR&TAF报告)。

可查询的气象台以黄色和红色小点在地图上表示。

将鼠标移到小点上方,可查看气象台名称。

然后点击查看天气观测和预报。

如需切换地图:点击带黑十字的绿色按钮放大地图;点击带横线的绿色按钮缩小地图;或者点击绿色箭头查看邻近地区的地图。


METAR-TAF: